sensor_id;sensor_type;location;lat;lon;timestamp;P1;durP1;ratioP1;P2;durP2;ratioP2
73321;SDS011;61549;37.044;22.128;2023-05-10T00:00:13;8.77;;;6.80;;
73321;SDS011;61549;37.044;22.128;2023-05-10T00:02:39;9.30;;;7.47;;
73321;SDS011;61549;37.044;22.128;2023-05-10T00:05:11;8.85;;;7.32;;
73321;SDS011;61549;37.044;22.128;2023-05-10T00:07:37;8.77;;;7.43;;
73321;SDS011;61549;37.044;22.128;2023-05-10T00:10:03;9.05;;;7.75;;
73321;SDS011;61549;37.044;22.128;2023-05-10T00:12:29;9.13;;;7.70;;
73321;SDS011;61549;37.044;22.128;2023-05-10T00:14:55;7.75;;;6.93;;
73321;SDS011;61549;37.044;22.128;2023-05-10T00:17:21;9.20;;;7.25;;
73321;SDS011;61549;37.044;22.128;2023-05-10T00:19:47;9.07;;;7.50;;
73321;SDS011;61549;37.044;22.128;2023-05-10T00:22:13;9.40;;;7.85;;
73321;SDS011;61549;37.044;22.128;2023-05-10T00:24:39;8.50;;;7.70;;
73321;SDS011;61549;37.044;22.128;2023-05-10T00:27:04;10.18;;;7.45;;
73321;SDS011;61549;37.044;22.128;2023-05-10T00:29:30;10.05;;;7.85;;
73321;SDS011;61549;37.044;22.128;2023-05-10T00:31:56;11.38;;;7.50;;
73321;SDS011;61549;37.044;22.128;2023-05-10T00:34:22;9.63;;;7.63;;
73321;SDS011;61549;37.044;22.128;2023-05-10T00:36:49;8.73;;;7.35;;
73321;SDS011;61549;37.044;22.128;2023-05-10T00:39:15;9.98;;;7.93;;
73321;SDS011;61549;37.044;22.128;2023-05-10T00:41:47;9.43;;;7.15;;
73321;SDS011;61549;37.044;22.128;2023-05-10T00:44:13;9.73;;;7.47;;
73321;SDS011;61549;37.044;22.128;2023-05-10T00:46:39;8.68;;;7.78;;
73321;SDS011;61549;37.044;22.128;2023-05-10T00:49:06;9.13;;;7.85;;
73321;SDS011;61549;37.044;22.128;2023-05-10T00:51:32;10.05;;;7.97;;
73321;SDS011;61549;37.044;22.128;2023-05-10T00:53:58;8.80;;;7.60;;
73321;SDS011;61549;37.044;22.128;2023-05-10T00:56:25;9.35;;;7.50;;
73321;SDS011;61549;37.044;22.128;2023-05-10T00:58:51;9.30;;;7.40;;
73321;SDS011;61549;37.044;22.128;2023-05-10T01:01:17;8.88;;;7.03;;
73321;SDS011;61549;37.044;22.128;2023-05-10T01:03:44;8.70;;;7.40;;
73321;SDS011;61549;37.044;22.128;2023-05-10T01:06:12;8.88;;;7.22;;
73321;SDS011;61549;37.044;22.128;2023-05-10T01:08:48;10.73;;;7.60;;
73321;SDS011;61549;37.044;22.128;2023-05-10T01:11:14;10.63;;;7.38;;
73321;SDS011;61549;37.044;22.128;2023-05-10T01:13:42;10.80;;;7.30;;
73321;SDS011;61549;37.044;22.128;2023-05-10T01:16:12;8.32;;;7.22;;
73321;SDS011;61549;37.044;22.128;2023-05-10T01:18:38;8.60;;;7.60;;
73321;SDS011;61549;37.044;22.128;2023-05-10T01:21:14;8.45;;;7.28;;
73321;SDS011;61549;37.044;22.128;2023-05-10T01:29:54;9.45;;;7.03;;
73321;SDS011;61549;37.044;22.128;2023-05-10T01:32:56;10.07;;;7.68;;
73321;SDS011;61549;37.044;22.128;2023-05-10T01:38:22;9.57;;;7.55;;
73321;SDS011;61549;37.044;22.128;2023-05-10T01:46:35;9.85;;;7.38;;
73321;SDS011;61549;37.044;22.128;2023-05-10T01:49:03;8.18;;;7.38;;
73321;SDS011;61549;37.044;22.128;2023-05-10T01:51:41;8.32;;;7.40;;
73321;SDS011;61549;37.044;22.128;2023-05-10T01:54:17;8.75;;;7.63;;
73321;SDS011;61549;37.044;22.128;2023-05-10T01:59:33;12.30;;;7.85;;
73321;SDS011;61549;37.044;22.128;2023-05-10T02:02:09;9.43;;;7.65;;
73321;SDS011;61549;37.044;22.128;2023-05-10T02:04:37;9.57;;;7.70;;
73321;SDS011;61549;37.044;22.128;2023-05-10T02:07:05;9.38;;;7.70;;
73321;SDS011;61549;37.044;22.128;2023-05-10T02:09:32;10.05;;;7.95;;
73321;SDS011;61549;37.044;22.128;2023-05-10T02:12:00;9.82;;;8.10;;
73321;SDS011;61549;37.044;22.128;2023-05-10T02:14:30;11.32;;;8.27;;
73321;SDS011;61549;37.044;22.128;2023-05-10T02:19:30;10.63;;;8.63;;
73321;SDS011;61549;37.044;22.128;2023-05-10T02:21:59;11.32;;;8.23;;
73321;SDS011;61549;37.044;22.128;2023-05-10T02:24:25;10.00;;;8.70;;
73321;SDS011;61549;37.044;22.128;2023-05-10T02:26:55;11.65;;;8.90;;
73321;SDS011;61549;37.044;22.128;2023-05-10T02:29:23;11.45;;;8.65;;
73321;SDS011;61549;37.044;22.128;2023-05-10T02:31:51;11.85;;;9.02;;
73321;SDS011;61549;37.044;22.128;2023-05-10T02:34:19;11.75;;;9.25;;
73321;SDS011;61549;37.044;22.128;2023-05-10T02:36:50;11.93;;;9.18;;
73321;SDS011;61549;37.044;22.128;2023-05-10T02:39:20;10.38;;;8.65;;
73321;SDS011;61549;37.044;22.128;2023-05-10T02:41:49;11.43;;;9.50;;
73321;SDS011;61549;37.044;22.128;2023-05-10T02:44:17;10.32;;;8.85;;
73321;SDS011;61549;37.044;22.128;2023-05-10T02:46:45;12.50;;;9.18;;
73321;SDS011;61549;37.044;22.128;2023-05-10T02:49:14;11.45;;;9.32;;
73321;SDS011;61549;37.044;22.128;2023-05-10T02:51:42;11.38;;;9.00;;
73321;SDS011;61549;37.044;22.128;2023-05-10T02:54:23;12.02;;;9.80;;
73321;SDS011;61549;37.044;22.128;2023-05-10T02:56:55;12.18;;;8.80;;
73321;SDS011;61549;37.044;22.128;2023-05-10T02:59:28;10.90;;;9.40;;
73321;SDS011;61549;37.044;22.128;2023-05-10T03:01:54;11.13;;;9.45;;
73321;SDS011;61549;37.044;22.128;2023-05-10T03:04:21;13.65;;;10.20;;
73321;SDS011;61549;37.044;22.128;2023-05-10T03:06:47;13.35;;;10.13;;
73321;SDS011;61549;37.044;22.128;2023-05-10T03:09:13;14.85;;;9.77;;
73321;SDS011;61549;37.044;22.128;2023-05-10T03:11:55;13.55;;;10.07;;
73321;SDS011;61549;37.044;22.128;2023-05-10T03:17:14;14.15;;;9.65;;
73321;SDS011;61549;37.044;22.128;2023-05-10T03:19:54;10.95;;;9.52;;
73321;SDS011;61549;37.044;22.128;2023-05-10T03:22:34;12.57;;;8.65;;
73321;SDS011;61549;37.044;22.128;2023-05-10T03:25:04;12.80;;;9.15;;
73321;SDS011;61549;37.044;22.128;2023-05-10T03:27:32;14.10;;;8.52;;
73321;SDS011;61549;37.044;22.128;2023-05-10T03:29:59;9.95;;;8.23;;
73321;SDS011;61549;37.044;22.128;2023-05-10T03:32:28;9.05;;;8.05;;
73321;SDS011;61549;37.044;22.128;2023-05-10T03:34:56;9.88;;;8.50;;
73321;SDS011;61549;37.044;22.128;2023-05-10T03:37:22;10.15;;;8.80;;
73321;SDS011;61549;37.044;22.128;2023-05-10T03:39:48;10.18;;;7.70;;
73321;SDS011;61549;37.044;22.128;2023-05-10T03:42:14;9.80;;;7.63;;
73321;SDS011;61549;37.044;22.128;2023-05-10T03:44:40;9.88;;;7.63;;
73321;SDS011;61549;37.044;22.128;2023-05-10T03:47:05;9.45;;;7.65;;
73321;SDS011;61549;37.044;22.128;2023-05-10T03:49:33;8.20;;;7.25;;
73321;SDS011;61549;37.044;22.128;2023-05-10T03:51:59;9.25;;;8.10;;
73321;SDS011;61549;37.044;22.128;2023-05-10T03:54:26;10.57;;;9.02;;
73321;SDS011;61549;37.044;22.128;2023-05-10T03:56:54;13.48;;;9.45;;
73321;SDS011;61549;37.044;22.128;2023-05-10T03:59:19;9.63;;;8.35;;
73321;SDS011;61549;37.044;22.128;2023-05-10T04:01:45;10.48;;;8.50;;
73321;SDS011;61549;37.044;22.128;2023-05-10T04:04:11;13.05;;;9.82;;
73321;SDS011;61549;37.044;22.128;2023-05-10T04:06:37;15.05;;;9.68;;
73321;SDS011;61549;37.044;22.128;2023-05-10T04:09:12;13.65;;;9.90;;
73321;SDS011;61549;37.044;22.128;2023-05-10T04:14:08;16.25;;;11.50;;
73321;SDS011;61549;37.044;22.128;2023-05-10T04:16:33;15.15;;;11.65;;
73321;SDS011;61549;37.044;22.128;2023-05-10T04:18:59;16.40;;;11.90;;
73321;SDS011;61549;37.044;22.128;2023-05-10T04:21:25;19.52;;;11.98;;
73321;SDS011;61549;37.044;22.128;2023-05-10T04:23:51;15.68;;;11.20;;
73321;SDS011;61549;37.044;22.128;2023-05-10T04:26:17;20.42;;;11.43;;
73321;SDS011;61549;37.044;22.128;2023-05-10T04:28:43;13.90;;;11.65;;
73321;SDS011;61549;37.044;22.128;2023-05-10T04:31:09;16.65;;;11.60;;
73321;SDS011;61549;37.044;22.128;2023-05-10T04:33:35;13.93;;;10.07;;
73321;SDS011;61549;37.044;22.128;2023-05-10T04:36:02;13.02;;;9.93;;
73321;SDS011;61549;37.044;22.128;2023-05-10T04:38:35;15.60;;;10.18;;
73321;SDS011;61549;37.044;22.128;2023-05-10T04:41:07;12.93;;;9.90;;
73321;SDS011;61549;37.044;22.128;2023-05-10T04:43:34;13.40;;;10.57;;
73321;SDS011;61549;37.044;22.128;2023-05-10T04:46:01;12.05;;;9.75;;
73321;SDS011;61549;37.044;22.128;2023-05-10T04:48:27;13.35;;;10.52;;
73321;SDS011;61549;37.044;22.128;2023-05-10T04:50:53;11.52;;;9.73;;
73321;SDS011;61549;37.044;22.128;2023-05-10T04:53:19;12.95;;;9.40;;
73321;SDS011;61549;37.044;22.128;2023-05-10T04:55:45;12.43;;;8.80;;
73321;SDS011;61549;37.044;22.128;2023-05-10T04:58:11;12.27;;;9.27;;
73321;SDS011;61549;37.044;22.128;2023-05-10T05:00:37;12.48;;;9.32;;
73321;SDS011;61549;37.044;22.128;2023-05-10T05:03:03;11.40;;;9.50;;
73321;SDS011;61549;37.044;22.128;2023-05-10T05:05:29;10.98;;;9.55;;
73321;SDS011;61549;37.044;22.128;2023-05-10T05:07:55;11.50;;;9.80;;
73321;SDS011;61549;37.044;22.128;2023-05-10T05:10:21;11.90;;;9.55;;
73321;SDS011;61549;37.044;22.128;2023-05-10T05:12:47;12.40;;;9.02;;
73321;SDS011;61549;37.044;22.128;2023-05-10T05:15:12;12.23;;;9.63;;
73321;SDS011;61549;37.044;22.128;2023-05-10T05:17:40;15.18;;;10.75;;
73321;SDS011;61549;37.044;22.128;2023-05-10T05:20:06;11.73;;;10.10;;
73321;SDS011;61549;37.044;22.128;2023-05-10T05:22:33;13.30;;;10.68;;
73321;SDS011;61549;37.044;22.128;2023-05-10T05:24:58;16.13;;;11.10;;
73321;SDS011;61549;37.044;22.128;2023-05-10T05:27:25;17.98;;;11.38;;
73321;SDS011;61549;37.044;22.128;2023-05-10T05:29:57;14.90;;;11.02;;
73321;SDS011;61549;37.044;22.128;2023-05-10T05:32:23;13.60;;;10.52;;
73321;SDS011;61549;37.044;22.128;2023-05-10T05:34:49;13.90;;;10.20;;
73321;SDS011;61549;37.044;22.128;2023-05-10T05:37:17;14.55;;;10.75;;
73321;SDS011;61549;37.044;22.128;2023-05-10T05:39:44;14.35;;;10.60;;
73321;SDS011;61549;37.044;22.128;2023-05-10T05:42:11;15.77;;;10.52;;
73321;SDS011;61549;37.044;22.128;2023-05-10T05:47:06;13.20;;;10.00;;
73321;SDS011;61549;37.044;22.128;2023-05-10T05:49:32;12.80;;;9.80;;
73321;SDS011;61549;37.044;22.128;2023-05-10T05:51:58;12.43;;;9.07;;
73321;SDS011;61549;37.044;22.128;2023-05-10T05:54:25;11.98;;;9.10;;
73321;SDS011;61549;37.044;22.128;2023-05-10T05:56:56;11.68;;;9.20;;
73321;SDS011;61549;37.044;22.128;2023-05-10T05:59:22;11.52;;;9.50;;
73321;SDS011;61549;37.044;22.128;2023-05-10T06:01:49;11.60;;;9.10;;
73321;SDS011;61549;37.044;22.128;2023-05-10T06:04:15;10.55;;;7.63;;
73321;SDS011;61549;37.044;22.128;2023-05-10T06:06:41;11.00;;;8.40;;
73321;SDS011;61549;37.044;22.128;2023-05-10T06:09:07;11.32;;;8.95;;
73321;SDS011;61549;37.044;22.128;2023-05-10T06:11:33;12.85;;;8.48;;
73321;SDS011;61549;37.044;22.128;2023-05-10T06:14:00;12.52;;;9.10;;
73321;SDS011;61549;37.044;22.128;2023-05-10T06:16:26;11.18;;;9.02;;
73321;SDS011;61549;37.044;22.128;2023-05-10T06:18:53;11.50;;;8.80;;
73321;SDS011;61549;37.044;22.128;2023-05-10T06:21:19;13.57;;;9.90;;
73321;SDS011;61549;37.044;22.128;2023-05-10T06:23:44;15.23;;;9.95;;
73321;SDS011;61549;37.044;22.128;2023-05-10T06:26:10;13.25;;;9.68;;
73321;SDS011;61549;37.044;22.128;2023-05-10T06:28:36;11.23;;;9.30;;
73321;SDS011;61549;37.044;22.128;2023-05-10T06:31:05;11.23;;;9.02;;
73321;SDS011;61549;37.044;22.128;2023-05-10T06:33:31;11.75;;;9.60;;
73321;SDS011;61549;37.044;22.128;2023-05-10T06:35:58;12.55;;;9.50;;
73321;SDS011;61549;37.044;22.128;2023-05-10T06:38:23;10.15;;;8.68;;
73321;SDS011;61549;37.044;22.128;2023-05-10T06:40:52;11.25;;;8.98;;
73321;SDS011;61549;37.044;22.128;2023-05-10T06:43:18;11.82;;;9.38;;
73321;SDS011;61549;37.044;22.128;2023-05-10T06:45:50;11.35;;;8.57;;
73321;SDS011;61549;37.044;22.128;2023-05-10T06:48:16;10.82;;;9.65;;
73321;SDS011;61549;37.044;22.128;2023-05-10T06:50:43;12.05;;;9.32;;
73321;SDS011;61549;37.044;22.128;2023-05-10T06:53:10;27.27;;;16.58;;
73321;SDS011;61549;37.044;22.128;2023-05-10T06:55:40;29.42;;;17.17;;
73321;SDS011;61549;37.044;22.128;2023-05-10T06:58:08;34.00;;;18.63;;
73321;SDS011;61549;37.044;22.128;2023-05-10T07:00:34;23.83;;;14.85;;
73321;SDS011;61549;37.044;22.128;2023-05-10T07:02:59;14.90;;;10.27;;
73321;SDS011;61549;37.044;22.128;2023-05-10T07:05:25;14.40;;;8.90;;
73321;SDS011;61549;37.044;22.128;2023-05-10T07:07:52;9.52;;;7.85;;
73321;SDS011;61549;37.044;22.128;2023-05-10T07:10:18;10.00;;;8.27;;
73321;SDS011;61549;37.044;22.128;2023-05-10T07:12:44;16.58;;;13.73;;
73321;SDS011;61549;37.044;22.128;2023-05-10T07:15:10;12.93;;;9.77;;
73321;SDS011;61549;37.044;22.128;2023-05-10T07:17:36;11.23;;;9.27;;
73321;SDS011;61549;37.044;22.128;2023-05-10T07:20:02;17.33;;;12.88;;
73321;SDS011;61549;37.044;22.128;2023-05-10T07:22:28;14.13;;;11.38;;
73321;SDS011;61549;37.044;22.128;2023-05-10T07:24:54;11.38;;;8.48;;
73321;SDS011;61549;37.044;22.128;2023-05-10T07:27:20;12.10;;;8.50;;
73321;SDS011;61549;37.044;22.128;2023-05-10T07:29:46;8.57;;;7.63;;
73321;SDS011;61549;37.044;22.128;2023-05-10T07:32:11;8.15;;;6.88;;
73321;SDS011;61549;37.044;22.128;2023-05-10T07:34:37;9.55;;;7.20;;
73321;SDS011;61549;37.044;22.128;2023-05-10T07:37:04;12.23;;;8.20;;
73321;SDS011;61549;37.044;22.128;2023-05-10T07:39:31;9.20;;;7.43;;
73321;SDS011;61549;37.044;22.128;2023-05-10T07:41:57;9.85;;;7.72;;
73321;SDS011;61549;37.044;22.128;2023-05-10T07:44:24;8.27;;;7.05;;
73321;SDS011;61549;37.044;22.128;2023-05-10T07:46:49;9.38;;;7.55;;
73321;SDS011;61549;37.044;22.128;2023-05-10T07:49:15;7.97;;;7.18;;
73321;SDS011;61549;37.044;22.128;2023-05-10T07:51:41;10.57;;;8.13;;
73321;SDS011;61549;37.044;22.128;2023-05-10T07:54:07;8.77;;;7.68;;
73321;SDS011;61549;37.044;22.128;2023-05-10T07:56:33;8.57;;;7.70;;
73321;SDS011;61549;37.044;22.128;2023-05-10T07:59:00;9.43;;;7.88;;
73321;SDS011;61549;37.044;22.128;2023-05-10T08:01:30;24.85;;;16.02;;
73321;SDS011;61549;37.044;22.128;2023-05-10T08:03:59;9.10;;;7.75;;
73321;SDS011;61549;37.044;22.128;2023-05-10T08:06:26;26.33;;;16.17;;
73321;SDS011;61549;37.044;22.128;2023-05-10T08:08:54;20.88;;;11.43;;
73321;SDS011;61549;37.044;22.128;2023-05-10T08:11:22;16.05;;;9.57;;
73321;SDS011;61549;37.044;22.128;2023-05-10T08:13:50;8.68;;;7.15;;
73321;SDS011;61549;37.044;22.128;2023-05-10T08:16:16;8.60;;;7.03;;
73321;SDS011;61549;37.044;22.128;2023-05-10T08:18:43;7.60;;;6.57;;
73321;SDS011;61549;37.044;22.128;2023-05-10T08:21:15;6.78;;;5.88;;
73321;SDS011;61549;37.044;22.128;2023-05-10T08:23:42;8.57;;;5.60;;
73321;SDS011;61549;37.044;22.128;2023-05-10T08:26:08;8.15;;;6.40;;
73321;SDS011;61549;37.044;22.128;2023-05-10T08:28:35;9.40;;;6.90;;
73321;SDS011;61549;37.044;22.128;2023-05-10T08:31:04;6.78;;;6.05;;
73321;SDS011;61549;37.044;22.128;2023-05-10T08:33:30;8.23;;;7.00;;
73321;SDS011;61549;37.044;22.128;2023-05-10T08:35:58;8.95;;;6.93;;
73321;SDS011;61549;37.044;22.128;2023-05-10T08:38:24;10.90;;;7.45;;
73321;SDS011;61549;37.044;22.128;2023-05-10T08:40:50;10.20;;;6.95;;
73321;SDS011;61549;37.044;22.128;2023-05-10T08:43:21;7.68;;;6.82;;
73321;SDS011;61549;37.044;22.128;2023-05-10T08:45:50;8.45;;;6.70;;
73321;SDS011;61549;37.044;22.128;2023-05-10T08:48:18;12.38;;;7.47;;
73321;SDS011;61549;37.044;22.128;2023-05-10T08:50:45;8.40;;;6.50;;
73321;SDS011;61549;37.044;22.128;2023-05-10T08:53:13;8.95;;;6.63;;
73321;SDS011;61549;37.044;22.128;2023-05-10T08:55:41;7.13;;;6.43;;
73321;SDS011;61549;37.044;22.128;2023-05-10T08:58:08;7.22;;;6.47;;
73321;SDS011;61549;37.044;22.128;2023-05-10T09:00:34;7.85;;;6.38;;
73321;SDS011;61549;37.044;22.128;2023-05-10T09:03:03;8.25;;;6.90;;
73321;SDS011;61549;37.044;22.128;2023-05-10T09:05:29;8.52;;;6.60;;
73321;SDS011;61549;37.044;22.128;2023-05-10T09:07:55;9.20;;;7.63;;
73321;SDS011;61549;37.044;22.128;2023-05-10T09:10:21;11.63;;;7.20;;
73321;SDS011;61549;37.044;22.128;2023-05-10T09:12:51;9.40;;;7.25;;
73321;SDS011;61549;37.044;22.128;2023-05-10T09:15:17;9.88;;;7.97;;
73321;SDS011;61549;37.044;22.128;2023-05-10T09:17:45;7.90;;;7.07;;
73321;SDS011;61549;37.044;22.128;2023-05-10T09:20:11;10.48;;;7.47;;
73321;SDS011;61549;37.044;22.128;2023-05-10T09:22:37;10.32;;;7.85;;
73321;SDS011;61549;37.044;22.128;2023-05-10T09:25:07;9.30;;;8.32;;
73321;SDS011;61549;37.044;22.128;2023-05-10T09:27:35;12.75;;;8.98;;
73321;SDS011;61549;37.044;22.128;2023-05-10T09:30:02;10.02;;;8.63;;
73321;SDS011;61549;37.044;22.128;2023-05-10T09:32:38;9.77;;;8.25;;
73321;SDS011;61549;37.044;22.128;2023-05-10T09:37:39;10.40;;;8.25;;
73321;SDS011;61549;37.044;22.128;2023-05-10T09:40:11;8.85;;;7.30;;
73321;SDS011;61549;37.044;22.128;2023-05-10T09:42:38;10.55;;;7.90;;
73321;SDS011;61549;37.044;22.128;2023-05-10T09:45:06;10.75;;;8.25;;
73321;SDS011;61549;37.044;22.128;2023-05-10T09:47:32;11.52;;;8.27;;
73321;SDS011;61549;37.044;22.128;2023-05-10T09:50:02;10.63;;;9.32;;
73321;SDS011;61549;37.044;22.128;2023-05-10T09:52:30;11.07;;;9.20;;
73321;SDS011;61549;37.044;22.128;2023-05-10T09:55:10;13.07;;;9.98;;
73321;SDS011;61549;37.044;22.128;2023-05-10T09:57:36;12.32;;;9.50;;
73321;SDS011;61549;37.044;22.128;2023-05-10T10:00:02;14.23;;;9.35;;
73321;SDS011;61549;37.044;22.128;2023-05-10T10:02:29;10.75;;;9.00;;
73321;SDS011;61549;37.044;22.128;2023-05-10T10:04:56;10.77;;;8.57;;
73321;SDS011;61549;37.044;22.128;2023-05-10T10:07:22;10.60;;;8.07;;
73321;SDS011;61549;37.044;22.128;2023-05-10T10:09:50;9.15;;;8.18;;
73321;SDS011;61549;37.044;22.128;2023-05-10T10:12:17;11.07;;;8.15;;
73321;SDS011;61549;37.044;22.128;2023-05-10T10:14:42;10.32;;;8.10;;
73321;SDS011;61549;37.044;22.128;2023-05-10T10:17:09;12.65;;;7.85;;
73321;SDS011;61549;37.044;22.128;2023-05-10T10:19:38;11.52;;;8.07;;
73321;SDS011;61549;37.044;22.128;2023-05-10T10:22:04;10.07;;;7.95;;
73321;SDS011;61549;37.044;22.128;2023-05-10T10:24:31;12.07;;;8.40;;
73321;SDS011;61549;37.044;22.128;2023-05-10T10:26:58;10.00;;;7.70;;
73321;SDS011;61549;37.044;22.128;2023-05-10T10:29:52;10.23;;;7.82;;
73321;SDS011;61549;37.044;22.128;2023-05-10T10:35:31;10.48;;;8.15;;
73321;SDS011;61549;37.044;22.128;2023-05-10T10:37:58;11.93;;;7.72;;
73321;SDS011;61549;37.044;22.128;2023-05-10T10:40:25;8.77;;;7.43;;
73321;SDS011;61549;37.044;22.128;2023-05-10T10:42:51;10.48;;;7.93;;
73321;SDS011;61549;37.044;22.128;2023-05-10T10:45:18;10.75;;;7.70;;
73321;SDS011;61549;37.044;22.128;2023-05-10T10:47:45;10.60;;;7.22;;
73321;SDS011;61549;37.044;22.128;2023-05-10T10:52:49;9.68;;;6.97;;
73321;SDS011;61549;37.044;22.128;2023-05-10T10:57:44;9.68;;;7.38;;
73321;SDS011;61549;37.044;22.128;2023-05-10T11:02:57;10.82;;;7.22;;
73321;SDS011;61549;37.044;22.128;2023-05-10T11:05:25;10.27;;;7.18;;
73321;SDS011;61549;37.044;22.128;2023-05-10T11:07:55;8.73;;;6.57;;
73321;SDS011;61549;37.044;22.128;2023-05-10T11:10:31;10.27;;;6.90;;
73321;SDS011;61549;37.044;22.128;2023-05-10T11:13:07;10.02;;;7.55;;
73321;SDS011;61549;37.044;22.128;2023-05-10T11:15:36;10.77;;;7.63;;
73321;SDS011;61549;37.044;22.128;2023-05-10T11:18:19;10.15;;;7.53;;
73321;SDS011;61549;37.044;22.128;2023-05-10T11:21:08;9.57;;;7.30;;
73321;SDS011;61549;37.044;22.128;2023-05-10T11:26:22;12.07;;;7.30;;
73321;SDS011;61549;37.044;22.128;2023-05-10T11:28:52;11.02;;;7.07;;
73321;SDS011;61549;37.044;22.128;2023-05-10T11:31:21;10.55;;;7.72;;
73321;SDS011;61549;37.044;22.128;2023-05-10T11:36:20;8.55;;;7.10;;
73321;SDS011;61549;37.044;22.128;2023-05-10T11:38:48;9.48;;;7.30;;
73321;SDS011;61549;37.044;22.128;2023-05-10T11:41:15;10.35;;;7.15;;
73321;SDS011;61549;37.044;22.128;2023-05-10T11:43:42;8.40;;;6.70;;
73321;SDS011;61549;37.044;22.128;2023-05-10T11:46:12;10.02;;;7.22;;
73321;SDS011;61549;37.044;22.128;2023-05-10T11:48:38;10.75;;;7.10;;
73321;SDS011;61549;37.044;22.128;2023-05-10T11:51:06;8.80;;;6.75;;
73321;SDS011;61549;37.044;22.128;2023-05-10T11:53:33;7.97;;;6.60;;
73321;SDS011;61549;37.044;22.128;2023-05-10T11:56:03;7.95;;;6.72;;
73321;SDS011;61549;37.044;22.128;2023-05-10T11:58:36;10.23;;;7.15;;
73321;SDS011;61549;37.044;22.128;2023-05-10T12:01:06;8.98;;;6.82;;
73321;SDS011;61549;37.044;22.128;2023-05-10T12:03:32;10.35;;;7.57;;
73321;SDS011;61549;37.044;22.128;2023-05-10T12:05:59;9.50;;;7.18;;
73321;SDS011;61549;37.044;22.128;2023-05-10T12:08:26;10.20;;;7.05;;
73321;SDS011;61549;37.044;22.128;2023-05-10T12:10:53;12.02;;;7.10;;
73321;SDS011;61549;37.044;22.128;2023-05-10T12:13:29;11.13;;;7.10;;
73321;SDS011;61549;37.044;22.128;2023-05-10T12:15:57;9.00;;;6.60;;
73321;SDS011;61549;37.044;22.128;2023-05-10T12:18:23;11.43;;;7.38;;
73321;SDS011;61549;37.044;22.128;2023-05-10T12:21:02;8.45;;;6.82;;
73321;SDS011;61549;37.044;22.128;2023-05-10T12:23:29;12.38;;;7.35;;
73321;SDS011;61549;37.044;22.128;2023-05-10T12:26:01;8.88;;;6.90;;
73321;SDS011;61549;37.044;22.128;2023-05-10T12:28:30;9.48;;;6.68;;
73321;SDS011;61549;37.044;22.128;2023-05-10T12:31:01;11.15;;;6.95;;
73321;SDS011;61549;37.044;22.128;2023-05-10T12:33:34;9.85;;;7.45;;
73321;SDS011;61549;37.044;22.128;2023-05-10T12:36:05;10.88;;;8.02;;
73321;SDS011;61549;37.044;22.128;2023-05-10T12:38:32;9.65;;;7.70;;
73321;SDS011;61549;37.044;22.128;2023-05-10T12:41:01;12.60;;;8.18;;
73321;SDS011;61549;37.044;22.128;2023-05-10T12:43:28;15.48;;;8.30;;
73321;SDS011;61549;37.044;22.128;2023-05-10T12:45:55;13.45;;;9.02;;
73321;SDS011;61549;37.044;22.128;2023-05-10T12:48:21;12.95;;;9.30;;
73321;SDS011;61549;37.044;22.128;2023-05-10T12:50:47;10.05;;;7.72;;
73321;SDS011;61549;37.044;22.128;2023-05-10T12:53:13;11.50;;;7.95;;
73321;SDS011;61549;37.044;22.128;2023-05-10T12:55:43;10.77;;;7.57;;
73321;SDS011;61549;37.044;22.128;2023-05-10T12:58:09;11.93;;;8.85;;
73321;SDS011;61549;37.044;22.128;2023-05-10T13:00:35;10.77;;;8.05;;
73321;SDS011;61549;37.044;22.128;2023-05-10T13:03:03;11.18;;;8.07;;
73321;SDS011;61549;37.044;22.128;2023-05-10T13:05:31;9.85;;;7.97;;
73321;SDS011;61549;37.044;22.128;2023-05-10T13:07:58;8.73;;;7.22;;
73321;SDS011;61549;37.044;22.128;2023-05-10T13:10:25;9.75;;;7.57;;
73321;SDS011;61549;37.044;22.128;2023-05-10T13:12:51;10.77;;;7.43;;
73321;SDS011;61549;37.044;22.128;2023-05-10T13:15:16;9.02;;;6.68;;
73321;SDS011;61549;37.044;22.128;2023-05-10T13:17:44;9.57;;;6.80;;
73321;SDS011;61549;37.044;22.128;2023-05-10T13:20:10;11.63;;;7.32;;
73321;SDS011;61549;37.044;22.128;2023-05-10T13:22:36;9.50;;;7.10;;
73321;SDS011;61549;37.044;22.128;2023-05-10T13:25:02;10.93;;;7.45;;
73321;SDS011;61549;37.044;22.128;2023-05-10T13:27:31;10.80;;;7.47;;
73321;SDS011;61549;37.044;22.128;2023-05-10T13:29:57;13.00;;;7.30;;
73321;SDS011;61549;37.044;22.128;2023-05-10T13:32:24;8.95;;;6.95;;
73321;SDS011;61549;37.044;22.128;2023-05-10T13:34:50;12.43;;;7.38;;
73321;SDS011;61549;37.044;22.128;2023-05-10T13:37:16;8.65;;;7.45;;
73321;SDS011;61549;37.044;22.128;2023-05-10T13:39:45;11.13;;;6.70;;
73321;SDS011;61549;37.044;22.128;2023-05-10T13:42:11;9.32;;;6.90;;
73321;SDS011;61549;37.044;22.128;2023-05-10T13:44:37;9.05;;;7.32;;
73321;SDS011;61549;37.044;22.128;2023-05-10T13:47:04;7.57;;;6.60;;
73321;SDS011;61549;37.044;22.128;2023-05-10T13:49:30;9.18;;;7.05;;
73321;SDS011;61549;37.044;22.128;2023-05-10T13:51:56;7.53;;;6.68;;
73321;SDS011;61549;37.044;22.128;2023-05-10T13:54:22;8.35;;;6.38;;
73321;SDS011;61549;37.044;22.128;2023-05-10T13:59:19;8.27;;;6.47;;
73321;SDS011;61549;37.044;22.128;2023-05-10T14:01:46;8.73;;;6.95;;
73321;SDS011;61549;37.044;22.128;2023-05-10T14:04:12;7.80;;;6.78;;
73321;SDS011;61549;37.044;22.128;2023-05-10T14:06:38;8.57;;;6.35;;
73321;SDS011;61549;37.044;22.128;2023-05-10T14:09:04;10.05;;;7.32;;
73321;SDS011;61549;37.044;22.128;2023-05-10T14:11:29;10.30;;;7.10;;
73321;SDS011;61549;37.044;22.128;2023-05-10T14:13:55;8.82;;;6.93;;
73321;SDS011;61549;37.044;22.128;2023-05-10T14:16:22;8.18;;;6.93;;
73321;SDS011;61549;37.044;22.128;2023-05-10T14:18:48;8.45;;;6.70;;
73321;SDS011;61549;37.044;22.128;2023-05-10T14:21:14;9.48;;;7.03;;
73321;SDS011;61549;37.044;22.128;2023-05-10T14:23:40;11.02;;;7.32;;
73321;SDS011;61549;37.044;22.128;2023-05-10T14:26:06;8.00;;;6.90;;
73321;SDS011;61549;37.044;22.128;2023-05-10T14:28:32;8.48;;;7.07;;
73321;SDS011;61549;37.044;22.128;2023-05-10T14:30:58;9.18;;;6.80;;
73321;SDS011;61549;37.044;22.128;2023-05-10T14:33:24;9.48;;;7.07;;
73321;SDS011;61549;37.044;22.128;2023-05-10T14:35:50;9.05;;;7.30;;
73321;SDS011;61549;37.044;22.128;2023-05-10T14:38:16;11.15;;;7.35;;
73321;SDS011;61549;37.044;22.128;2023-05-10T14:40:42;10.82;;;6.88;;
73321;SDS011;61549;37.044;22.128;2023-05-10T14:43:08;8.13;;;6.60;;
73321;SDS011;61549;37.044;22.128;2023-05-10T14:45:34;8.70;;;7.07;;
73321;SDS011;61549;37.044;22.128;2023-05-10T14:48:00;8.32;;;6.60;;
73321;SDS011;61549;37.044;22.128;2023-05-10T14:50:29;12.85;;;7.28;;
73321;SDS011;61549;37.044;22.128;2023-05-10T14:52:56;10.82;;;6.85;;
73321;SDS011;61549;37.044;22.128;2023-05-10T14:55:23;8.18;;;6.63;;
73321;SDS011;61549;37.044;22.128;2023-05-10T14:57:48;8.40;;;6.32;;
73321;SDS011;61549;37.044;22.128;2023-05-10T15:00:15;9.13;;;7.15;;
73321;SDS011;61549;37.044;22.128;2023-05-10T15:02:42;10.77;;;6.88;;
73321;SDS011;61549;37.044;22.128;2023-05-10T15:05:07;10.05;;;7.10;;
73321;SDS011;61549;37.044;22.128;2023-05-10T15:07:33;9.35;;;6.90;;
73321;SDS011;61549;37.044;22.128;2023-05-10T15:09:59;9.68;;;7.32;;
73321;SDS011;61549;37.044;22.128;2023-05-10T15:12:25;9.48;;;6.80;;
73321;SDS011;61549;37.044;22.128;2023-05-10T15:14:51;8.85;;;6.68;;
73321;SDS011;61549;37.044;22.128;2023-05-10T15:17:17;9.02;;;6.82;;